sensor_id;sensor_type;location;lat;lon;timestamp;P1;durP1;ratioP1;P2;durP2;ratioP2
22314;SDS011;11325;55.686;37.566;2023-05-10T00:00:59;8.95;;;4.37;;
22314;SDS011;11325;55.686;37.566;2023-05-10T00:03:27;9.60;;;3.87;;
22314;SDS011;11325;55.686;37.566;2023-05-10T00:05:55;9.65;;;4.33;;
22314;SDS011;11325;55.686;37.566;2023-05-10T00:08:23;10.38;;;4.30;;
22314;SDS011;11325;55.686;37.566;2023-05-10T00:10:52;16.02;;;5.37;;
22314;SDS011;11325;55.686;37.566;2023-05-10T00:13:20;6.92;;;4.15;;
22314;SDS011;11325;55.686;37.566;2023-05-10T00:15:48;11.53;;;4.20;;
22314;SDS011;11325;55.686;37.566;2023-05-10T00:18:17;12.53;;;4.78;;
22314;SDS011;11325;55.686;37.566;2023-05-10T00:20:45;8.75;;;4.97;;
22314;SDS011;11325;55.686;37.566;2023-05-10T00:23:13;7.75;;;4.33;;
22314;SDS011;11325;55.686;37.566;2023-05-10T00:25:41;9.45;;;4.53;;
22314;SDS011;11325;55.686;37.566;2023-05-10T00:28:09;9.90;;;4.30;;
22314;SDS011;11325;55.686;37.566;2023-05-10T00:30:37;10.08;;;4.83;;
22314;SDS011;11325;55.686;37.566;2023-05-10T00:33:05;7.85;;;4.00;;
22314;SDS011;11325;55.686;37.566;2023-05-10T00:35:33;12.50;;;4.47;;
22314;SDS011;11325;55.686;37.566;2023-05-10T00:38:01;11.03;;;4.70;;
22314;SDS011;11325;55.686;37.566;2023-05-10T00:40:29;7.58;;;4.22;;
22314;SDS011;11325;55.686;37.566;2023-05-10T00:42:57;14.15;;;4.78;;
22314;SDS011;11325;55.686;37.566;2023-05-10T00:45:27;11.68;;;4.10;;
22314;SDS011;11325;55.686;37.566;2023-05-10T00:47:55;12.35;;;4.17;;
22314;SDS011;11325;55.686;37.566;2023-05-10T00:50:23;7.75;;;4.50;;
22314;SDS011;11325;55.686;37.566;2023-05-10T00:52:51;10.70;;;4.25;;
22314;SDS011;11325;55.686;37.566;2023-05-10T00:55:19;6.00;;;4.37;;
22314;SDS011;11325;55.686;37.566;2023-05-10T00:57:48;6.05;;;4.25;;
22314;SDS011;11325;55.686;37.566;2023-05-10T01:00:17;9.88;;;4.53;;
22314;SDS011;11325;55.686;37.566;2023-05-10T01:02:45;5.42;;;3.62;;
22314;SDS011;11325;55.686;37.566;2023-05-10T01:05:13;8.85;;;4.28;;
22314;SDS011;11325;55.686;37.566;2023-05-10T01:07:41;7.20;;;4.28;;
22314;SDS011;11325;55.686;37.566;2023-05-10T01:10:10;7.53;;;3.95;;
22314;SDS011;11325;55.686;37.566;2023-05-10T01:12:39;9.08;;;4.10;;
22314;SDS011;11325;55.686;37.566;2023-05-10T01:15:08;9.70;;;4.45;;
22314;SDS011;11325;55.686;37.566;2023-05-10T01:17:38;8.13;;;3.67;;
22314;SDS011;11325;55.686;37.566;2023-05-10T01:20:07;7.67;;;3.80;;
22314;SDS011;11325;55.686;37.566;2023-05-10T01:30:43;8.18;;;4.72;;
22314;SDS011;11325;55.686;37.566;2023-05-10T01:33:11;15.93;;;4.40;;
22314;SDS011;11325;55.686;37.566;2023-05-10T01:35:53;14.28;;;3.80;;
22314;SDS011;11325;55.686;37.566;2023-05-10T01:38:32;8.43;;;3.47;;
22314;SDS011;11325;55.686;37.566;2023-05-10T01:43:33;6.78;;;4.00;;
22314;SDS011;11325;55.686;37.566;2023-05-10T01:46:02;7.08;;;3.70;;
22314;SDS011;11325;55.686;37.566;2023-05-10T01:48:32;9.88;;;3.77;;
22314;SDS011;11325;55.686;37.566;2023-05-10T01:51:00;7.58;;;3.95;;
22314;SDS011;11325;55.686;37.566;2023-05-10T01:53:28;6.08;;;3.77;;
22314;SDS011;11325;55.686;37.566;2023-05-10T01:55:56;10.63;;;4.03;;
22314;SDS011;11325;55.686;37.566;2023-05-10T01:58:30;8.83;;;4.12;;
22314;SDS011;11325;55.686;37.566;2023-05-10T02:01:00;8.05;;;3.83;;
22314;SDS011;11325;55.686;37.566;2023-05-10T02:03:29;6.33;;;3.83;;
22314;SDS011;11325;55.686;37.566;2023-05-10T02:05:58;7.87;;;3.90;;
22314;SDS011;11325;55.686;37.566;2023-05-10T02:08:27;7.70;;;3.90;;
22314;SDS011;11325;55.686;37.566;2023-05-10T02:10:55;7.42;;;4.12;;
22314;SDS011;11325;55.686;37.566;2023-05-10T02:13:24;8.95;;;3.35;;
22314;SDS011;11325;55.686;37.566;2023-05-10T02:15:53;9.13;;;3.80;;
22314;SDS011;11325;55.686;37.566;2023-05-10T02:18:22;6.20;;;4.08;;
22314;SDS011;11325;55.686;37.566;2023-05-10T02:20:51;8.28;;;3.90;;
22314;SDS011;11325;55.686;37.566;2023-05-10T02:23:20;7.58;;;3.62;;
22314;SDS011;11325;55.686;37.566;2023-05-10T02:25:48;5.12;;;3.15;;
22314;SDS011;11325;55.686;37.566;2023-05-10T02:28:17;7.47;;;3.35;;
22314;SDS011;11325;55.686;37.566;2023-05-10T02:30:45;10.72;;;3.60;;
22314;SDS011;11325;55.686;37.566;2023-05-10T02:33:14;12.13;;;4.03;;
22314;SDS011;11325;55.686;37.566;2023-05-10T02:35:42;12.53;;;3.92;;
22314;SDS011;11325;55.686;37.566;2023-05-10T02:38:11;7.25;;;3.37;;
22314;SDS011;11325;55.686;37.566;2023-05-10T02:40:39;11.18;;;3.60;;
22314;SDS011;11325;55.686;37.566;2023-05-10T02:43:12;7.92;;;3.58;;
22314;SDS011;11325;55.686;37.566;2023-05-10T02:45:38;4.22;;;3.10;;
22314;SDS011;11325;55.686;37.566;2023-05-10T02:48:07;12.68;;;3.50;;
22314;SDS011;11325;55.686;37.566;2023-05-10T02:50:35;9.23;;;3.08;;
22314;SDS011;11325;55.686;37.566;2023-05-10T02:53:06;5.40;;;3.08;;
22314;SDS011;11325;55.686;37.566;2023-05-10T02:55:40;12.43;;;3.05;;
22314;SDS011;11325;55.686;37.566;2023-05-10T02:58:03;11.15;;;3.08;;
22314;SDS011;11325;55.686;37.566;2023-05-10T03:00:31;10.28;;;3.25;;
22314;SDS011;11325;55.686;37.566;2023-05-10T03:03:00;13.10;;;3.47;;
22314;SDS011;11325;55.686;37.566;2023-05-10T03:05:28;5.22;;;2.55;;
22314;SDS011;11325;55.686;37.566;2023-05-10T03:07:56;5.33;;;2.83;;
22314;SDS011;11325;55.686;37.566;2023-05-10T03:10:27;3.80;;;2.60;;
22314;SDS011;11325;55.686;37.566;2023-05-10T03:15:59;5.17;;;2.67;;
22314;SDS011;11325;55.686;37.566;2023-05-10T03:18:29;6.30;;;2.90;;
22314;SDS011;11325;55.686;37.566;2023-05-10T03:20:59;6.47;;;2.87;;
22314;SDS011;11325;55.686;37.566;2023-05-10T03:23:27;9.28;;;2.95;;
22314;SDS011;11325;55.686;37.566;2023-05-10T03:25:56;13.20;;;2.87;;
22314;SDS011;11325;55.686;37.566;2023-05-10T03:28:25;4.85;;;2.80;;
22314;SDS011;11325;55.686;37.566;2023-05-10T03:30:54;34.88;;;3.72;;
22314;SDS011;11325;55.686;37.566;2023-05-10T03:33:22;11.90;;;2.87;;
22314;SDS011;11325;55.686;37.566;2023-05-10T03:35:50;5.83;;;2.62;;
22314;SDS011;11325;55.686;37.566;2023-05-10T03:38:18;8.70;;;2.95;;
22314;SDS011;11325;55.686;37.566;2023-05-10T03:40:47;6.90;;;2.80;;
22314;SDS011;11325;55.686;37.566;2023-05-10T03:43:15;6.55;;;2.77;;
22314;SDS011;11325;55.686;37.566;2023-05-10T03:45:43;6.20;;;2.70;;
22314;SDS011;11325;55.686;37.566;2023-05-10T03:48:10;7.00;;;3.08;;
22314;SDS011;11325;55.686;37.566;2023-05-10T03:50:40;8.75;;;2.85;;
22314;SDS011;11325;55.686;37.566;2023-05-10T03:53:08;11.88;;;2.80;;
22314;SDS011;11325;55.686;37.566;2023-05-10T03:55:36;8.50;;;2.80;;
22314;SDS011;11325;55.686;37.566;2023-05-10T03:58:04;6.40;;;2.70;;
22314;SDS011;11325;55.686;37.566;2023-05-10T04:00:32;8.63;;;3.20;;
22314;SDS011;11325;55.686;37.566;2023-05-10T04:03:00;6.55;;;2.70;;
22314;SDS011;11325;55.686;37.566;2023-05-10T04:05:28;6.10;;;2.77;;
22314;SDS011;11325;55.686;37.566;2023-05-10T04:07:56;6.50;;;3.20;;
22314;SDS011;11325;55.686;37.566;2023-05-10T04:10:24;7.35;;;2.50;;
22314;SDS011;11325;55.686;37.566;2023-05-10T04:12:52;11.43;;;3.27;;
22314;SDS011;11325;55.686;37.566;2023-05-10T04:15:20;8.75;;;3.27;;
22314;SDS011;11325;55.686;37.566;2023-05-10T04:17:48;4.85;;;2.83;;
22314;SDS011;11325;55.686;37.566;2023-05-10T04:20:16;13.55;;;2.72;;
22314;SDS011;11325;55.686;37.566;2023-05-10T04:22:44;3.70;;;2.60;;
22314;SDS011;11325;55.686;37.566;2023-05-10T04:25:12;5.00;;;2.42;;
22314;SDS011;11325;55.686;37.566;2023-05-10T04:27:40;8.23;;;2.75;;
22314;SDS011;11325;55.686;37.566;2023-05-10T04:30:09;10.25;;;2.87;;
22314;SDS011;11325;55.686;37.566;2023-05-10T04:32:37;10.25;;;2.83;;
22314;SDS011;11325;55.686;37.566;2023-05-10T04:35:05;6.80;;;2.80;;
22314;SDS011;11325;55.686;37.566;2023-05-10T04:37:33;4.12;;;2.62;;
22314;SDS011;11325;55.686;37.566;2023-05-10T04:40:02;9.53;;;2.87;;
22314;SDS011;11325;55.686;37.566;2023-05-10T04:42:30;5.30;;;3.22;;
22314;SDS011;11325;55.686;37.566;2023-05-10T04:44:58;8.90;;;2.40;;
22314;SDS011;11325;55.686;37.566;2023-05-10T04:47:26;21.48;;;2.70;;
22314;SDS011;11325;55.686;37.566;2023-05-10T04:49:54;13.88;;;2.90;;
22314;SDS011;11325;55.686;37.566;2023-05-10T04:52:22;9.70;;;2.60;;
22314;SDS011;11325;55.686;37.566;2023-05-10T04:54:50;10.75;;;2.75;;
22314;SDS011;11325;55.686;37.566;2023-05-10T04:57:18;12.98;;;2.70;;
22314;SDS011;11325;55.686;37.566;2023-05-10T04:59:46;6.80;;;2.80;;
22314;SDS011;11325;55.686;37.566;2023-05-10T05:02:14;7.22;;;2.20;;
22314;SDS011;11325;55.686;37.566;2023-05-10T05:04:42;5.35;;;2.70;;
22314;SDS011;11325;55.686;37.566;2023-05-10T05:07:10;11.55;;;2.62;;
22314;SDS011;11325;55.686;37.566;2023-05-10T05:09:38;9.20;;;2.35;;
22314;SDS011;11325;55.686;37.566;2023-05-10T05:12:06;5.85;;;2.58;;
22314;SDS011;11325;55.686;37.566;2023-05-10T05:14:34;6.90;;;2.80;;
22314;SDS011;11325;55.686;37.566;2023-05-10T05:17:02;21.12;;;7.08;;
22314;SDS011;11325;55.686;37.566;2023-05-10T05:19:31;15.58;;;3.33;;
22314;SDS011;11325;55.686;37.566;2023-05-10T05:21:59;4.25;;;2.35;;
22314;SDS011;11325;55.686;37.566;2023-05-10T05:24:27;5.50;;;2.25;;
22314;SDS011;11325;55.686;37.566;2023-05-10T05:26:55;7.22;;;2.37;;
22314;SDS011;11325;55.686;37.566;2023-05-10T05:29:23;8.05;;;2.70;;
22314;SDS011;11325;55.686;37.566;2023-05-10T05:31:50;14.38;;;3.20;;
22314;SDS011;11325;55.686;37.566;2023-05-10T05:34:18;6.65;;;2.55;;
22314;SDS011;11325;55.686;37.566;2023-05-10T05:36:47;21.33;;;6.25;;
22314;SDS011;11325;55.686;37.566;2023-05-10T05:39:15;13.68;;;2.85;;
22314;SDS011;11325;55.686;37.566;2023-05-10T05:41:43;8.63;;;2.83;;
22314;SDS011;11325;55.686;37.566;2023-05-10T05:44:11;4.95;;;2.67;;
22314;SDS011;11325;55.686;37.566;2023-05-10T05:46:39;7.45;;;2.40;;
22314;SDS011;11325;55.686;37.566;2023-05-10T05:49:07;11.95;;;2.52;;
22314;SDS011;11325;55.686;37.566;2023-05-10T05:51:35;5.75;;;2.47;;
22314;SDS011;11325;55.686;37.566;2023-05-10T05:54:03;4.83;;;2.33;;
22314;SDS011;11325;55.686;37.566;2023-05-10T05:56:31;9.98;;;2.85;;
22314;SDS011;11325;55.686;37.566;2023-05-10T05:58:59;8.60;;;2.98;;
22314;SDS011;11325;55.686;37.566;2023-05-10T06:01:27;14.07;;;2.62;;
22314;SDS011;11325;55.686;37.566;2023-05-10T06:03:55;9.93;;;2.45;;
22314;SDS011;11325;55.686;37.566;2023-05-10T06:06:23;3.17;;;2.20;;
22314;SDS011;11325;55.686;37.566;2023-05-10T06:08:51;15.98;;;2.65;;
22314;SDS011;11325;55.686;37.566;2023-05-10T06:11:19;11.65;;;2.20;;
22314;SDS011;11325;55.686;37.566;2023-05-10T06:13:47;5.12;;;2.20;;
22314;SDS011;11325;55.686;37.566;2023-05-10T06:16:15;4.00;;;2.20;;
22314;SDS011;11325;55.686;37.566;2023-05-10T06:18:44;2.65;;;1.90;;
22314;SDS011;11325;55.686;37.566;2023-05-10T06:21:12;9.00;;;2.25;;
22314;SDS011;11325;55.686;37.566;2023-05-10T06:23:40;9.13;;;2.27;;
22314;SDS011;11325;55.686;37.566;2023-05-10T06:26:08;5.25;;;2.37;;
22314;SDS011;11325;55.686;37.566;2023-05-10T06:28:36;6.08;;;1.90;;
22314;SDS011;11325;55.686;37.566;2023-05-10T06:31:07;8.20;;;1.92;;
22314;SDS011;11325;55.686;37.566;2023-05-10T06:33:35;2.75;;;2.00;;
22314;SDS011;11325;55.686;37.566;2023-05-10T06:36:03;7.45;;;2.15;;
22314;SDS011;11325;55.686;37.566;2023-05-10T06:38:31;14.95;;;2.72;;
22314;SDS011;11325;55.686;37.566;2023-05-10T06:41:00;14.07;;;2.35;;
22314;SDS011;11325;55.686;37.566;2023-05-10T06:43:28;5.35;;;2.27;;
22314;SDS011;11325;55.686;37.566;2023-05-10T06:45:56;13.93;;;2.70;;
22314;SDS011;11325;55.686;37.566;2023-05-10T06:48:24;7.08;;;2.12;;
22314;SDS011;11325;55.686;37.566;2023-05-10T06:50:52;6.45;;;2.27;;
22314;SDS011;11325;55.686;37.566;2023-05-10T06:53:20;5.45;;;2.02;;
22314;SDS011;11325;55.686;37.566;2023-05-10T06:55:48;3.62;;;1.98;;
22314;SDS011;11325;55.686;37.566;2023-05-10T06:58:16;13.78;;;1.82;;
22314;SDS011;11325;55.686;37.566;2023-05-10T07:00:44;8.18;;;1.98;;
22314;SDS011;11325;55.686;37.566;2023-05-10T07:03:13;15.88;;;1.90;;
22314;SDS011;11325;55.686;37.566;2023-05-10T07:05:42;3.87;;;1.87;;
22314;SDS011;11325;55.686;37.566;2023-05-10T07:08:10;11.57;;;2.15;;
22314;SDS011;11325;55.686;37.566;2023-05-10T07:10:38;6.42;;;2.10;;
22314;SDS011;11325;55.686;37.566;2023-05-10T07:13:06;5.30;;;2.92;;
22314;SDS011;11325;55.686;37.566;2023-05-10T07:15:34;13.65;;;3.80;;
22314;SDS011;11325;55.686;37.566;2023-05-10T07:18:02;6.95;;;2.62;;
22314;SDS011;11325;55.686;37.566;2023-05-10T07:20:31;4.62;;;2.00;;
22314;SDS011;11325;55.686;37.566;2023-05-10T07:22:59;5.90;;;2.10;;
22314;SDS011;11325;55.686;37.566;2023-05-10T07:25:27;6.40;;;1.82;;
22314;SDS011;11325;55.686;37.566;2023-05-10T07:27:55;6.28;;;2.47;;
22314;SDS011;11325;55.686;37.566;2023-05-10T07:30:23;4.78;;;1.80;;
22314;SDS011;11325;55.686;37.566;2023-05-10T07:32:51;3.80;;;1.90;;
22314;SDS011;11325;55.686;37.566;2023-05-10T07:35:19;9.83;;;2.42;;
22314;SDS011;11325;55.686;37.566;2023-05-10T07:37:47;7.10;;;2.00;;
22314;SDS011;11325;55.686;37.566;2023-05-10T07:40:15;6.12;;;1.92;;
22314;SDS011;11325;55.686;37.566;2023-05-10T07:42:43;6.55;;;2.02;;
22314;SDS011;11325;55.686;37.566;2023-05-10T07:45:11;7.67;;;2.20;;
22314;SDS011;11325;55.686;37.566;2023-05-10T07:47:38;5.80;;;2.50;;
22314;SDS011;11325;55.686;37.566;2023-05-10T07:50:07;5.47;;;2.35;;
22314;SDS011;11325;55.686;37.566;2023-05-10T07:52:35;10.43;;;2.20;;
22314;SDS011;11325;55.686;37.566;2023-05-10T07:55:03;8.25;;;1.90;;
22314;SDS011;11325;55.686;37.566;2023-05-10T07:57:31;5.00;;;1.90;;
22314;SDS011;11325;55.686;37.566;2023-05-10T07:59:59;3.30;;;1.87;;
22314;SDS011;11325;55.686;37.566;2023-05-10T08:02:29;5.30;;;1.75;;
22314;SDS011;11325;55.686;37.566;2023-05-10T08:04:57;4.67;;;1.90;;
22314;SDS011;11325;55.686;37.566;2023-05-10T08:07:25;2.77;;;2.15;;
22314;SDS011;11325;55.686;37.566;2023-05-10T08:09:53;11.28;;;2.30;;
22314;SDS011;11325;55.686;37.566;2023-05-10T08:12:21;4.45;;;1.87;;
22314;SDS011;11325;55.686;37.566;2023-05-10T08:14:49;5.72;;;1.77;;
22314;SDS011;11325;55.686;37.566;2023-05-10T08:17:17;3.02;;;2.02;;
22314;SDS011;11325;55.686;37.566;2023-05-10T08:19:45;3.12;;;1.80;;
22314;SDS011;11325;55.686;37.566;2023-05-10T08:22:13;5.03;;;1.80;;
22314;SDS011;11325;55.686;37.566;2023-05-10T08:24:41;5.37;;;1.60;;
22314;SDS011;11325;55.686;37.566;2023-05-10T08:27:09;2.17;;;1.65;;
22314;SDS011;11325;55.686;37.566;2023-05-10T08:29:37;4.67;;;2.00;;
22314;SDS011;11325;55.686;37.566;2023-05-10T08:32:05;9.65;;;2.40;;
22314;SDS011;11325;55.686;37.566;2023-05-10T08:34:33;12.13;;;2.20;;
22314;SDS011;11325;55.686;37.566;2023-05-10T08:37:01;11.08;;;1.70;;
22314;SDS011;11325;55.686;37.566;2023-05-10T08:39:28;2.37;;;1.85;;
22314;SDS011;11325;55.686;37.566;2023-05-10T08:41:58;7.00;;;2.00;;
22314;SDS011;11325;55.686;37.566;2023-05-10T08:44:27;3.22;;;2.08;;
22314;SDS011;11325;55.686;37.566;2023-05-10T08:46:56;4.70;;;2.25;;
22314;SDS011;11325;55.686;37.566;2023-05-10T08:49:25;3.95;;;1.92;;
22314;SDS011;11325;55.686;37.566;2023-05-10T08:51:54;1.62;;;1.45;;
22314;SDS011;11325;55.686;37.566;2023-05-10T08:54:23;3.95;;;1.35;;
22314;SDS011;11325;55.686;37.566;2023-05-10T08:56:51;9.40;;;2.08;;
22314;SDS011;11325;55.686;37.566;2023-05-10T08:59:20;2.15;;;1.90;;
22314;SDS011;11325;55.686;37.566;2023-05-10T09:01:48;5.60;;;1.77;;
22314;SDS011;11325;55.686;37.566;2023-05-10T09:04:16;3.47;;;2.00;;
22314;SDS011;11325;55.686;37.566;2023-05-10T09:06:44;8.30;;;1.80;;
22314;SDS011;11325;55.686;37.566;2023-05-10T09:09:13;6.22;;;1.67;;
22314;SDS011;11325;55.686;37.566;2023-05-10T09:11:41;1.82;;;1.60;;
22314;SDS011;11325;55.686;37.566;2023-05-10T09:14:09;4.42;;;1.95;;
22314;SDS011;11325;55.686;37.566;2023-05-10T09:16:38;6.78;;;2.12;;
22314;SDS011;11325;55.686;37.566;2023-05-10T09:19:07;5.50;;;1.57;;
22314;SDS011;11325;55.686;37.566;2023-05-10T09:21:35;8.78;;;1.72;;
22314;SDS011;11325;55.686;37.566;2023-05-10T09:24:06;5.87;;;1.75;;
22314;SDS011;11325;55.686;37.566;2023-05-10T09:26:35;6.03;;;2.00;;
22314;SDS011;11325;55.686;37.566;2023-05-10T09:29:03;4.45;;;2.35;;
22314;SDS011;11325;55.686;37.566;2023-05-10T09:31:44;2.22;;;1.80;;
22314;SDS011;11325;55.686;37.566;2023-05-10T09:34:20;8.58;;;1.92;;
22314;SDS011;11325;55.686;37.566;2023-05-10T09:36:55;8.28;;;2.00;;
22314;SDS011;11325;55.686;37.566;2023-05-10T09:39:33;5.62;;;2.33;;
22314;SDS011;11325;55.686;37.566;2023-05-10T09:41:52;2.55;;;1.60;;
22314;SDS011;11325;55.686;37.566;2023-05-10T09:44:20;4.67;;;1.80;;
22314;SDS011;11325;55.686;37.566;2023-05-10T09:46:48;3.50;;;2.22;;
22314;SDS011;11325;55.686;37.566;2023-05-10T09:49:17;3.65;;;2.20;;
22314;SDS011;11325;55.686;37.566;2023-05-10T09:51:45;2.98;;;1.95;;
22314;SDS011;11325;55.686;37.566;2023-05-10T09:54:14;3.98;;;1.70;;
22314;SDS011;11325;55.686;37.566;2023-05-10T09:56:42;5.08;;;1.65;;
22314;SDS011;11325;55.686;37.566;2023-05-10T09:59:11;4.35;;;1.95;;
22314;SDS011;11325;55.686;37.566;2023-05-10T10:01:39;4.12;;;2.70;;
22314;SDS011;11325;55.686;37.566;2023-05-10T10:04:09;4.70;;;2.25;;
22314;SDS011;11325;55.686;37.566;2023-05-10T10:06:40;3.10;;;2.30;;
22314;SDS011;11325;55.686;37.566;2023-05-10T10:09:08;6.33;;;2.10;;
22314;SDS011;11325;55.686;37.566;2023-05-10T10:11:37;4.37;;;1.98;;
22314;SDS011;11325;55.686;37.566;2023-05-10T10:14:05;7.53;;;2.25;;
22314;SDS011;11325;55.686;37.566;2023-05-10T10:16:33;5.92;;;2.20;;
22314;SDS011;11325;55.686;37.566;2023-05-10T10:19:01;2.77;;;2.02;;
22314;SDS011;11325;55.686;37.566;2023-05-10T10:21:30;5.47;;;2.42;;
22314;SDS011;11325;55.686;37.566;2023-05-10T10:23:59;6.42;;;2.10;;
22314;SDS011;11325;55.686;37.566;2023-05-10T10:26:27;3.98;;;2.30;;
22314;SDS011;11325;55.686;37.566;2023-05-10T10:34:26;13.28;;;3.75;;
22314;SDS011;11325;55.686;37.566;2023-05-10T10:36:58;5.60;;;2.83;;
22314;SDS011;11325;55.686;37.566;2023-05-10T10:39:27;6.50;;;2.92;;
22314;SDS011;11325;55.686;37.566;2023-05-10T10:41:56;5.20;;;2.67;;
22314;SDS011;11325;55.686;37.566;2023-05-10T10:44:25;4.03;;;2.70;;
22314;SDS011;11325;55.686;37.566;2023-05-10T10:47:07;9.98;;;2.45;;
22314;SDS011;11325;55.686;37.566;2023-05-10T10:49:38;7.80;;;2.75;;
22314;SDS011;11325;55.686;37.566;2023-05-10T10:54:50;5.62;;;2.75;;
22314;SDS011;11325;55.686;37.566;2023-05-10T10:57:17;5.35;;;2.50;;
22314;SDS011;11325;55.686;37.566;2023-05-10T10:59:44;8.75;;;2.05;;
22314;SDS011;11325;55.686;37.566;2023-05-10T11:04:59;10.48;;;6.83;;
22314;SDS011;11325;55.686;37.566;2023-05-10T11:07:28;9.85;;;3.47;;
22314;SDS011;11325;55.686;37.566;2023-05-10T11:09:55;5.97;;;2.35;;
22314;SDS011;11325;55.686;37.566;2023-05-10T11:12:25;10.43;;;2.45;;
22314;SDS011;11325;55.686;37.566;2023-05-10T11:14:53;2.85;;;2.10;;
22314;SDS011;11325;55.686;37.566;2023-05-10T11:17:28;13.72;;;2.50;;
22314;SDS011;11325;55.686;37.566;2023-05-10T11:20:06;6.40;;;2.52;;
22314;SDS011;11325;55.686;37.566;2023-05-10T11:22:21;9.50;;;2.55;;
22314;SDS011;11325;55.686;37.566;2023-05-10T11:24:57;8.45;;;2.58;;
22314;SDS011;11325;55.686;37.566;2023-05-10T11:27:29;3.95;;;2.58;;
22314;SDS011;11325;55.686;37.566;2023-05-10T11:29:57;12.93;;;2.60;;
22314;SDS011;11325;55.686;37.566;2023-05-10T11:32:25;4.28;;;1.87;;
22314;SDS011;11325;55.686;37.566;2023-05-10T11:34:53;3.37;;;2.17;;
22314;SDS011;11325;55.686;37.566;2023-05-10T11:37:21;3.05;;;1.92;;
22314;SDS011;11325;55.686;37.566;2023-05-10T11:39:49;8.48;;;2.72;;
22314;SDS011;11325;55.686;37.566;2023-05-10T11:42:17;4.22;;;2.20;;
22314;SDS011;11325;55.686;37.566;2023-05-10T11:44:45;7.10;;;2.80;;
22314;SDS011;11325;55.686;37.566;2023-05-10T11:47:14;5.85;;;2.60;;
22314;SDS011;11325;55.686;37.566;2023-05-10T11:49:46;6.92;;;3.42;;
22314;SDS011;11325;55.686;37.566;2023-05-10T11:52:13;10.05;;;2.27;;
22314;SDS011;11325;55.686;37.566;2023-05-10T11:55:01;12.80;;;2.92;;
22314;SDS011;11325;55.686;37.566;2023-05-10T11:57:14;5.22;;;2.40;;
22314;SDS011;11325;55.686;37.566;2023-05-10T11:59:42;4.17;;;2.25;;
22314;SDS011;11325;55.686;37.566;2023-05-10T12:02:10;8.05;;;2.37;;
22314;SDS011;11325;55.686;37.566;2023-05-10T12:04:38;7.08;;;2.35;;
22314;SDS011;11325;55.686;37.566;2023-05-10T12:07:06;7.50;;;2.55;;
22314;SDS011;11325;55.686;37.566;2023-05-10T12:09:34;7.58;;;2.00;;
22314;SDS011;11325;55.686;37.566;2023-05-10T12:12:02;4.42;;;2.37;;
22314;SDS011;11325;55.686;37.566;2023-05-10T12:14:33;3.45;;;2.17;;
22314;SDS011;11325;55.686;37.566;2023-05-10T12:17:00;2.47;;;1.90;;
22314;SDS011;11325;55.686;37.566;2023-05-10T12:19:28;3.30;;;2.12;;
22314;SDS011;11325;55.686;37.566;2023-05-10T12:21:56;3.62;;;2.72;;
22314;SDS011;11325;55.686;37.566;2023-05-10T12:24:24;5.75;;;2.30;;
22314;SDS011;11325;55.686;37.566;2023-05-10T12:26:52;4.80;;;2.00;;
22314;SDS011;11325;55.686;37.566;2023-05-10T12:29:20;3.02;;;2.10;;
22314;SDS011;11325;55.686;37.566;2023-05-10T12:31:52;5.25;;;2.60;;
22314;SDS011;11325;55.686;37.566;2023-05-10T12:34:24;6.40;;;2.17;;
22314;SDS011;11325;55.686;37.566;2023-05-10T12:36:53;8.70;;;2.70;;
22314;SDS011;11325;55.686;37.566;2023-05-10T12:39:21;8.30;;;2.35;;
22314;SDS011;11325;55.686;37.566;2023-05-10T12:41:49;5.58;;;2.22;;
22314;SDS011;11325;55.686;37.566;2023-05-10T12:44:18;3.52;;;2.25;;
22314;SDS011;11325;55.686;37.566;2023-05-10T12:46:46;6.45;;;2.67;;
22314;SDS011;11325;55.686;37.566;2023-05-10T12:49:14;5.58;;;2.20;;
22314;SDS011;11325;55.686;37.566;2023-05-10T12:51:43;7.78;;;2.10;;
22314;SDS011;11325;55.686;37.566;2023-05-10T12:54:11;8.95;;;2.33;;
22314;SDS011;11325;55.686;37.566;2023-05-10T12:56:39;9.08;;;2.45;;
22314;SDS011;11325;55.686;37.566;2023-05-10T12:59:09;22.00;;;2.55;;
22314;SDS011;11325;55.686;37.566;2023-05-10T13:01:37;5.20;;;2.20;;
22314;SDS011;11325;55.686;37.566;2023-05-10T13:04:05;10.70;;;2.15;;
22314;SDS011;11325;55.686;37.566;2023-05-10T13:06:33;3.33;;;2.12;;
22314;SDS011;11325;55.686;37.566;2023-05-10T13:09:01;7.85;;;4.95;;
22314;SDS011;11325;55.686;37.566;2023-05-10T13:11:30;3.95;;;2.42;;
22314;SDS011;11325;55.686;37.566;2023-05-10T13:13:58;6.95;;;2.20;;
22314;SDS011;11325;55.686;37.566;2023-05-10T13:16:26;3.00;;;1.70;;
22314;SDS011;11325;55.686;37.566;2023-05-10T13:18:54;7.08;;;2.15;;
22314;SDS011;11325;55.686;37.566;2023-05-10T13:21:22;3.98;;;2.25;;
22314;SDS011;11325;55.686;37.566;2023-05-10T13:23:51;6.42;;;2.08;;
22314;SDS011;11325;55.686;37.566;2023-05-10T13:26:19;5.80;;;2.77;;
22314;SDS011;11325;55.686;37.566;2023-05-10T13:28:47;6.42;;;2.20;;
22314;SDS011;11325;55.686;37.566;2023-05-10T13:31:15;5.45;;;2.35;;
22314;SDS011;11325;55.686;37.566;2023-05-10T13:33:43;10.90;;;2.22;;
22314;SDS011;11325;55.686;37.566;2023-05-10T13:36:11;5.35;;;2.27;;
22314;SDS011;11325;55.686;37.566;2023-05-10T13:38:39;15.72;;;3.35;;
22314;SDS011;11325;55.686;37.566;2023-05-10T13:41:07;3.25;;;2.10;;
22314;SDS011;11325;55.686;37.566;2023-05-10T13:43:35;7.40;;;2.85;;
22314;SDS011;11325;55.686;37.566;2023-05-10T13:46:03;6.70;;;2.75;;
22314;SDS011;11325;55.686;37.566;2023-05-10T13:48:31;2.98;;;2.30;;
22314;SDS011;11325;55.686;37.566;2023-05-10T13:50:59;5.47;;;2.27;;
22314;SDS011;11325;55.686;37.566;2023-05-10T13:53:27;6.15;;;2.10;;
22314;SDS011;11325;55.686;37.566;2023-05-10T13:55:55;4.87;;;2.20;;
22314;SDS011;11325;55.686;37.566;2023-05-10T13:58:24;3.80;;;2.02;;
22314;SDS011;11325;55.686;37.566;2023-05-10T14:00:52;3.55;;;1.82;;
22314;SDS011;11325;55.686;37.566;2023-05-10T14:03:20;8.10;;;2.75;;
22314;SDS011;11325;55.686;37.566;2023-05-10T14:05:48;9.15;;;2.27;;
22314;SDS011;11325;55.686;37.566;2023-05-10T14:08:15;8.98;;;2.37;;
22314;SDS011;11325;55.686;37.566;2023-05-10T14:10:44;4.22;;;2.47;;
22314;SDS011;11325;55.686;37.566;2023-05-10T14:13:14;3.80;;;2.60;;
22314;SDS011;11325;55.686;37.566;2023-05-10T14:15:42;2.85;;;2.12;;
22314;SDS011;11325;55.686;37.566;2023-05-10T14:18:10;10.35;;;2.52;;
22314;SDS011;11325;55.686;37.566;2023-05-10T14:20:38;9.33;;;2.50;;
22314;SDS011;11325;55.686;37.566;2023-05-10T14:23:06;7.45;;;2.30;;
22314;SDS011;11325;55.686;37.566;2023-05-10T14:25:35;9.93;;;2.80;;
22314;SDS011;11325;55.686;37.566;2023-05-10T14:28:03;4.97;;;2.22;;
22314;SDS011;11325;55.686;37.566;2023-05-10T14:30:31;3.35;;;2.05;;
22314;SDS011;11325;55.686;37.566;2023-05-10T14:33:01;4.92;;;2.27;;
22314;SDS011;11325;55.686;37.566;2023-05-10T14:35:29;6.70;;;2.33;;
22314;SDS011;11325;55.686;37.566;2023-05-10T14:37:59;4.45;;;2.10;;
22314;SDS011;11325;55.686;37.566;2023-05-10T14:40:27;6.08;;;2.22;;
22314;SDS011;11325;55.686;37.566;2023-05-10T14:42:55;7.70;;;2.52;;
22314;SDS011;11325;55.686;37.566;2023-05-10T14:45:23;16.20;;;7.10;;
22314;SDS011;11325;55.686;37.566;2023-05-10T14:47:51;4.65;;;2.08;;
22314;SDS011;11325;55.686;37.566;2023-05-10T14:50:19;5.97;;;2.27;;
22314;SDS011;11325;55.686;37.566;2023-05-10T14:52:47;4.55;;;1.90;;
22314;SDS011;11325;55.686;37.566;2023-05-10T14:55:15;5.58;;;2.60;;
22314;SDS011;11325;55.686;37.566;2023-05-10T14:57:43;6.10;;;2.42;;
22314;SDS011;11325;55.686;37.566;2023-05-10T15:00:13;11.70;;;2.37;;
22314;SDS011;11325;55.686;37.566;2023-05-10T15:02:42;14.80;;;4.45;;